sensor_id;sensor_type;location;lat;lon;timestamp;temperature;humidity
13328;DHT22;6733;51.044;3.746;2023-05-10T00:02:17;14.00;99.90
13328;DHT22;6733;51.044;3.746;2023-05-10T00:04:43;14.00;99.90
13328;DHT22;6733;51.044;3.746;2023-05-10T00:07:10;14.00;99.90
13328;DHT22;6733;51.044;3.746;2023-05-10T00:09:36;14.00;99.90
13328;DHT22;6733;51.044;3.746;2023-05-10T00:12:03;14.10;99.90
13328;DHT22;6733;51.044;3.746;2023-05-10T00:14:29;14.10;99.90
13328;DHT22;6733;51.044;3.746;2023-05-10T00:16:56;14.20;99.90
13328;DHT22;6733;51.044;3.746;2023-05-10T00:19:22;14.20;99.90
13328;DHT22;6733;51.044;3.746;2023-05-10T00:21:48;14.20;99.90
13328;DHT22;6733;51.044;3.746;2023-05-10T00:24:15;14.20;99.90
13328;DHT22;6733;51.044;3.746;2023-05-10T00:26:41;14.30;99.90
13328;DHT22;6733;51.044;3.746;2023-05-10T00:29:08;14.30;99.90
13328;DHT22;6733;51.044;3.746;2023-05-10T00:31:34;14.30;99.90
13328;DHT22;6733;51.044;3.746;2023-05-10T00:34:00;14.20;99.90
13328;DHT22;6733;51.044;3.746;2023-05-10T00:36:26;14.10;99.90
13328;DHT22;6733;51.044;3.746;2023-05-10T00:38:53;14.20;99.90
13328;DHT22;6733;51.044;3.746;2023-05-10T00:41:19;14.10;99.90
13328;DHT22;6733;51.044;3.746;2023-05-10T00:43:47;14.20;99.90
13328;DHT22;6733;51.044;3.746;2023-05-10T00:46:14;14.20;99.90
13328;DHT22;6733;51.044;3.746;2023-05-10T00:48:42;14.10;99.90
13328;DHT22;6733;51.044;3.746;2023-05-10T00:51:09;14.10;99.90
13328;DHT22;6733;51.044;3.746;2023-05-10T00:53:35;14.10;99.90
13328;DHT22;6733;51.044;3.746;2023-05-10T00:56:02;14.10;99.90
13328;DHT22;6733;51.044;3.746;2023-05-10T00:58:29;14.10;99.90
13328;DHT22;6733;51.044;3.746;2023-05-10T01:00:56;14.10;99.90
13328;DHT22;6733;51.044;3.746;2023-05-10T01:03:24;14.10;99.90
13328;DHT22;6733;51.044;3.746;2023-05-10T01:05:50;14.10;99.90
13328;DHT22;6733;51.044;3.746;2023-05-10T01:08:16;14.10;99.90
13328;DHT22;6733;51.044;3.746;2023-05-10T01:10:43;14.10;99.90
13328;DHT22;6733;51.044;3.746;2023-05-10T01:13:10;14.00;99.90
13328;DHT22;6733;51.044;3.746;2023-05-10T01:15:36;14.00;99.90
13328;DHT22;6733;51.044;3.746;2023-05-10T01:18:03;13.90;99.90
13328;DHT22;6733;51.044;3.746;2023-05-10T01:20:36;13.90;99.90
13328;DHT22;6733;51.044;3.746;2023-05-10T01:36:26;14.10;99.90
13328;DHT22;6733;51.044;3.746;2023-05-10T01:39:06;14.10;99.90
13328;DHT22;6733;51.044;3.746;2023-05-10T01:44:35;14.00;99.90
13328;DHT22;6733;51.044;3.746;2023-05-10T01:47:15;14.00;99.90
13328;DHT22;6733;51.044;3.746;2023-05-10T01:49:50;14.00;99.90
13328;DHT22;6733;51.044;3.746;2023-05-10T01:52:18;14.00;99.90
13328;DHT22;6733;51.044;3.746;2023-05-10T01:54:53;14.00;99.90
13328;DHT22;6733;51.044;3.746;2023-05-10T01:57:22;14.00;99.90
13328;DHT22;6733;51.044;3.746;2023-05-10T01:59:51;14.00;99.90
13328;DHT22;6733;51.044;3.746;2023-05-10T02:02:20;14.00;99.90
13328;DHT22;6733;51.044;3.746;2023-05-10T02:04:49;14.10;99.90
13328;DHT22;6733;51.044;3.746;2023-05-10T02:07:16;14.00;99.90
13328;DHT22;6733;51.044;3.746;2023-05-10T02:09:44;14.00;99.90
13328;DHT22;6733;51.044;3.746;2023-05-10T02:12:15;14.00;99.90
13328;DHT22;6733;51.044;3.746;2023-05-10T02:14:42;13.90;99.90
13328;DHT22;6733;51.044;3.746;2023-05-10T02:17:09;13.90;99.90
13328;DHT22;6733;51.044;3.746;2023-05-10T02:19:38;13.80;99.90
13328;DHT22;6733;51.044;3.746;2023-05-10T02:22:06;13.80;99.90
13328;DHT22;6733;51.044;3.746;2023-05-10T02:24:34;13.90;99.90
13328;DHT22;6733;51.044;3.746;2023-05-10T02:27:03;13.90;99.90
13328;DHT22;6733;51.044;3.746;2023-05-10T02:29:30;13.90;99.90
13328;DHT22;6733;51.044;3.746;2023-05-10T02:31:57;14.00;99.90
13328;DHT22;6733;51.044;3.746;2023-05-10T02:34:49;14.00;99.90
13328;DHT22;6733;51.044;3.746;2023-05-10T02:38:06;14.10;99.90
13328;DHT22;6733;51.044;3.746;2023-05-10T02:41:23;14.10;99.90
13328;DHT22;6733;51.044;3.746;2023-05-10T02:44:41;14.10;99.90
13328;DHT22;6733;51.044;3.746;2023-05-10T02:47:58;14.10;99.90
13328;DHT22;6733;51.044;3.746;2023-05-10T02:51:16;14.20;99.90
13328;DHT22;6733;51.044;3.746;2023-05-10T02:54:39;14.20;99.90
13328;DHT22;6733;51.044;3.746;2023-05-10T02:57:07;14.20;99.90
13328;DHT22;6733;51.044;3.746;2023-05-10T02:59:35;14.20;99.90
13328;DHT22;6733;51.044;3.746;2023-05-10T03:02:01;14.20;99.90
13328;DHT22;6733;51.044;3.746;2023-05-10T03:04:28;14.20;99.90
13328;DHT22;6733;51.044;3.746;2023-05-10T03:06:54;14.20;99.90
13328;DHT22;6733;51.044;3.746;2023-05-10T03:09:20;14.20;99.90
13328;DHT22;6733;51.044;3.746;2023-05-10T03:17:52;14.30;99.90
13328;DHT22;6733;51.044;3.746;2023-05-10T03:20:35;14.20;99.90
13328;DHT22;6733;51.044;3.746;2023-05-10T03:23:13;14.20;99.90
13328;DHT22;6733;51.044;3.746;2023-05-10T03:25:44;14.20;99.90
13328;DHT22;6733;51.044;3.746;2023-05-10T03:28:14;14.20;99.90
13328;DHT22;6733;51.044;3.746;2023-05-10T03:30:42;14.20;99.90
13328;DHT22;6733;51.044;3.746;2023-05-10T03:33:09;14.20;99.90
13328;DHT22;6733;51.044;3.746;2023-05-10T03:35:35;14.30;99.90
13328;DHT22;6733;51.044;3.746;2023-05-10T03:38:02;14.30;99.90
13328;DHT22;6733;51.044;3.746;2023-05-10T03:40:28;14.30;99.90
13328;DHT22;6733;51.044;3.746;2023-05-10T03:43:00;14.30;99.90
13328;DHT22;6733;51.044;3.746;2023-05-10T03:45:27;14.30;99.90
13328;DHT22;6733;51.044;3.746;2023-05-10T03:47:53;14.30;99.90
13328;DHT22;6733;51.044;3.746;2023-05-10T03:50:20;14.30;99.90
13328;DHT22;6733;51.044;3.746;2023-05-10T03:52:46;14.30;99.90
13328;DHT22;6733;51.044;3.746;2023-05-10T03:55:13;14.30;99.90
13328;DHT22;6733;51.044;3.746;2023-05-10T03:57:39;14.30;99.90
13328;DHT22;6733;51.044;3.746;2023-05-10T04:00:05;14.30;99.90
13328;DHT22;6733;51.044;3.746;2023-05-10T04:02:32;14.30;99.90
13328;DHT22;6733;51.044;3.746;2023-05-10T04:04:58;14.30;99.90
13328;DHT22;6733;51.044;3.746;2023-05-10T04:07:24;14.30;99.90
13328;DHT22;6733;51.044;3.746;2023-05-10T04:09:50;14.30;99.90
13328;DHT22;6733;51.044;3.746;2023-05-10T04:12:16;14.30;99.90
13328;DHT22;6733;51.044;3.746;2023-05-10T04:14:43;14.30;99.90
13328;DHT22;6733;51.044;3.746;2023-05-10T04:17:09;14.30;99.90
13328;DHT22;6733;51.044;3.746;2023-05-10T04:19:36;14.30;99.90
13328;DHT22;6733;51.044;3.746;2023-05-10T04:22:03;14.40;99.90
13328;DHT22;6733;51.044;3.746;2023-05-10T04:24:29;14.40;99.90
13328;DHT22;6733;51.044;3.746;2023-05-10T04:26:55;14.40;99.90
13328;DHT22;6733;51.044;3.746;2023-05-10T04:29:21;14.40;99.90
13328;DHT22;6733;51.044;3.746;2023-05-10T04:31:47;14.30;99.90
13328;DHT22;6733;51.044;3.746;2023-05-10T04:34:14;14.40;99.90
13328;DHT22;6733;51.044;3.746;2023-05-10T04:36:40;14.40;99.90
13328;DHT22;6733;51.044;3.746;2023-05-10T04:39:07;14.40;99.90
13328;DHT22;6733;51.044;3.746;2023-05-10T04:41:33;14.50;99.90
13328;DHT22;6733;51.044;3.746;2023-05-10T04:43:59;14.50;99.90
13328;DHT22;6733;51.044;3.746;2023-05-10T04:46:25;14.60;99.90
13328;DHT22;6733;51.044;3.746;2023-05-10T04:48:51;14.60;99.90
13328;DHT22;6733;51.044;3.746;2023-05-10T04:51:17;14.70;99.90
13328;DHT22;6733;51.044;3.746;2023-05-10T04:53:44;14.70;99.90
13328;DHT22;6733;51.044;3.746;2023-05-10T04:56:10;14.70;99.90
13328;DHT22;6733;51.044;3.746;2023-05-10T04:58:36;14.70;99.90
13328;DHT22;6733;51.044;3.746;2023-05-10T05:01:07;14.70;99.90
13328;DHT22;6733;51.044;3.746;2023-05-10T05:03:34;14.60;99.90
13328;DHT22;6733;51.044;3.746;2023-05-10T05:06:00;14.60;99.90
13328;DHT22;6733;51.044;3.746;2023-05-10T05:08:26;14.70;99.90
13328;DHT22;6733;51.044;3.746;2023-05-10T05:10:52;14.70;99.90
13328;DHT22;6733;51.044;3.746;2023-05-10T05:13:19;14.70;99.90
13328;DHT22;6733;51.044;3.746;2023-05-10T05:15:45;14.70;99.90
13328;DHT22;6733;51.044;3.746;2023-05-10T05:18:11;14.80;99.90
13328;DHT22;6733;51.044;3.746;2023-05-10T05:20:37;14.80;99.90
13328;DHT22;6733;51.044;3.746;2023-05-10T05:23:03;14.80;99.90
13328;DHT22;6733;51.044;3.746;2023-05-10T05:25:29;14.80;99.90
13328;DHT22;6733;51.044;3.746;2023-05-10T05:27:56;14.80;99.90
13328;DHT22;6733;51.044;3.746;2023-05-10T05:30:22;14.80;99.90
13328;DHT22;6733;51.044;3.746;2023-05-10T05:32:48;14.90;99.90
13328;DHT22;6733;51.044;3.746;2023-05-10T05:35:14;14.90;99.90
13328;DHT22;6733;51.044;3.746;2023-05-10T05:37:41;15.00;99.90
13328;DHT22;6733;51.044;3.746;2023-05-10T05:40:08;15.00;99.90
13328;DHT22;6733;51.044;3.746;2023-05-10T05:42:34;15.00;99.90
13328;DHT22;6733;51.044;3.746;2023-05-10T05:45:00;15.00;99.90
13328;DHT22;6733;51.044;3.746;2023-05-10T05:47:26;15.10;99.90
13328;DHT22;6733;51.044;3.746;2023-05-10T05:49:52;15.10;99.90
13328;DHT22;6733;51.044;3.746;2023-05-10T05:52:18;15.10;99.90
13328;DHT22;6733;51.044;3.746;2023-05-10T05:54:45;15.20;99.90
13328;DHT22;6733;51.044;3.746;2023-05-10T05:57:11;15.20;99.90
13328;DHT22;6733;51.044;3.746;2023-05-10T05:59:37;15.30;99.90
13328;DHT22;6733;51.044;3.746;2023-05-10T06:02:10;15.30;99.90
13328;DHT22;6733;51.044;3.746;2023-05-10T06:04:36;15.30;99.90
13328;DHT22;6733;51.044;3.746;2023-05-10T06:07:02;15.50;99.90
13328;DHT22;6733;51.044;3.746;2023-05-10T06:09:29;15.50;99.90
13328;DHT22;6733;51.044;3.746;2023-05-10T06:11:55;15.50;99.90
13328;DHT22;6733;51.044;3.746;2023-05-10T06:14:21;15.60;99.90
13328;DHT22;6733;51.044;3.746;2023-05-10T06:16:47;15.60;99.90
13328;DHT22;6733;51.044;3.746;2023-05-10T06:19:14;15.70;99.90
13328;DHT22;6733;51.044;3.746;2023-05-10T06:21:40;15.70;99.90
13328;DHT22;6733;51.044;3.746;2023-05-10T06:24:06;15.80;99.90
13328;DHT22;6733;51.044;3.746;2023-05-10T06:26:33;15.80;99.90
13328;DHT22;6733;51.044;3.746;2023-05-10T06:28:59;15.70;99.90
13328;DHT22;6733;51.044;3.746;2023-05-10T06:31:25;15.60;99.90
13328;DHT22;6733;51.044;3.746;2023-05-10T06:33:51;15.50;99.90
13328;DHT22;6733;51.044;3.746;2023-05-10T06:36:18;15.40;99.90
13328;DHT22;6733;51.044;3.746;2023-05-10T06:38:44;15.40;99.90
13328;DHT22;6733;51.044;3.746;2023-05-10T06:41:10;15.40;99.90
13328;DHT22;6733;51.044;3.746;2023-05-10T06:43:36;15.40;99.90
13328;DHT22;6733;51.044;3.746;2023-05-10T06:46:05;15.50;99.90
13328;DHT22;6733;51.044;3.746;2023-05-10T06:48:32;15.30;99.90
13328;DHT22;6733;51.044;3.746;2023-05-10T06:50:58;15.30;99.90
13328;DHT22;6733;51.044;3.746;2023-05-10T06:53:25;15.30;99.90
13328;DHT22;6733;51.044;3.746;2023-05-10T06:55:51;15.20;99.90
13328;DHT22;6733;51.044;3.746;2023-05-10T06:58:17;15.20;99.90
13328;DHT22;6733;51.044;3.746;2023-05-10T07:00:43;15.20;99.90
13328;DHT22;6733;51.044;3.746;2023-05-10T07:03:11;15.10;99.90
13328;DHT22;6733;51.044;3.746;2023-05-10T07:05:37;14.30;99.90
13328;DHT22;6733;51.044;3.746;2023-05-10T07:08:03;14.00;99.90
13328;DHT22;6733;51.044;3.746;2023-05-10T07:10:29;13.90;99.90
13328;DHT22;6733;51.044;3.746;2023-05-10T07:12:56;13.90;99.90
13328;DHT22;6733;51.044;3.746;2023-05-10T07:15:22;14.10;99.90
13328;DHT22;6733;51.044;3.746;2023-05-10T07:17:48;14.20;99.90
13328;DHT22;6733;51.044;3.746;2023-05-10T07:20:14;14.20;99.90
13328;DHT22;6733;51.044;3.746;2023-05-10T07:22:40;14.00;99.90
13328;DHT22;6733;51.044;3.746;2023-05-10T07:25:07;13.90;99.90
13328;DHT22;6733;51.044;3.746;2023-05-10T07:27:33;14.10;99.90
13328;DHT22;6733;51.044;3.746;2023-05-10T07:29:59;14.10;99.90
13328;DHT22;6733;51.044;3.746;2023-05-10T07:32:26;14.10;99.90
13328;DHT22;6733;51.044;3.746;2023-05-10T07:34:52;13.90;99.90
13328;DHT22;6733;51.044;3.746;2023-05-10T07:37:18;13.80;99.90
13328;DHT22;6733;51.044;3.746;2023-05-10T07:39:44;13.70;99.90
13328;DHT22;6733;51.044;3.746;2023-05-10T07:42:11;13.70;99.90
13328;DHT22;6733;51.044;3.746;2023-05-10T07:44:37;13.80;99.90
13328;DHT22;6733;51.044;3.746;2023-05-10T07:47:03;13.90;99.90
13328;DHT22;6733;51.044;3.746;2023-05-10T07:49:29;13.90;99.90
13328;DHT22;6733;51.044;3.746;2023-05-10T07:51:55;14.00;99.90
13328;DHT22;6733;51.044;3.746;2023-05-10T07:54:21;13.90;99.90
13328;DHT22;6733;51.044;3.746;2023-05-10T07:56:48;13.90;99.90
13328;DHT22;6733;51.044;3.746;2023-05-10T07:59:17;13.80;99.90
13328;DHT22;6733;51.044;3.746;2023-05-10T08:01:44;13.60;99.90
13328;DHT22;6733;51.044;3.746;2023-05-10T08:04:10;13.70;99.90
13328;DHT22;6733;51.044;3.746;2023-05-10T08:06:37;13.60;99.90
13328;DHT22;6733;51.044;3.746;2023-05-10T08:09:03;13.80;99.90
13328;DHT22;6733;51.044;3.746;2023-05-10T08:11:29;13.90;99.90
13328;DHT22;6733;51.044;3.746;2023-05-10T08:13:56;13.90;99.90
13328;DHT22;6733;51.044;3.746;2023-05-10T08:16:22;14.10;99.90
13328;DHT22;6733;51.044;3.746;2023-05-10T08:18:48;14.20;99.90
13328;DHT22;6733;51.044;3.746;2023-05-10T08:21:16;14.30;99.90
13328;DHT22;6733;51.044;3.746;2023-05-10T08:23:42;14.40;99.90
13328;DHT22;6733;51.044;3.746;2023-05-10T08:26:09;14.30;99.90
13328;DHT22;6733;51.044;3.746;2023-05-10T08:28:36;14.30;99.90
13328;DHT22;6733;51.044;3.746;2023-05-10T08:31:02;14.30;99.90
13328;DHT22;6733;51.044;3.746;2023-05-10T08:33:28;14.30;99.90
13328;DHT22;6733;51.044;3.746;2023-05-10T08:35:54;14.30;99.90
13328;DHT22;6733;51.044;3.746;2023-05-10T08:38:20;14.10;99.90
13328;DHT22;6733;51.044;3.746;2023-05-10T08:40:49;14.10;99.90
13328;DHT22;6733;51.044;3.746;2023-05-10T08:43:16;14.10;99.90
13328;DHT22;6733;51.044;3.746;2023-05-10T08:45:44;14.10;99.90
13328;DHT22;6733;51.044;3.746;2023-05-10T08:48:14;14.00;99.90
13328;DHT22;6733;51.044;3.746;2023-05-10T08:50:41;14.10;99.90
13328;DHT22;6733;51.044;3.746;2023-05-10T08:53:12;14.20;99.90
13328;DHT22;6733;51.044;3.746;2023-05-10T08:55:40;14.30;99.90
13328;DHT22;6733;51.044;3.746;2023-05-10T08:58:08;14.20;99.90
13328;DHT22;6733;51.044;3.746;2023-05-10T09:00:35;14.20;99.90
13328;DHT22;6733;51.044;3.746;2023-05-10T09:03:04;14.00;99.90
13328;DHT22;6733;51.044;3.746;2023-05-10T09:05:30;14.00;99.90
13328;DHT22;6733;51.044;3.746;2023-05-10T09:07:57;13.90;99.90
13328;DHT22;6733;51.044;3.746;2023-05-10T09:10:27;13.90;99.90
13328;DHT22;6733;51.044;3.746;2023-05-10T09:12:56;13.80;99.90
13328;DHT22;6733;51.044;3.746;2023-05-10T09:15:22;13.80;99.90
13328;DHT22;6733;51.044;3.746;2023-05-10T09:17:49;13.90;99.90
13328;DHT22;6733;51.044;3.746;2023-05-10T09:20:15;14.00;99.90
13328;DHT22;6733;51.044;3.746;2023-05-10T09:22:43;14.10;99.90
13328;DHT22;6733;51.044;3.746;2023-05-10T09:25:12;14.10;99.90
13328;DHT22;6733;51.044;3.746;2023-05-10T09:27:45;14.20;99.90
13328;DHT22;6733;51.044;3.746;2023-05-10T09:30:26;14.40;99.90
13328;DHT22;6733;51.044;3.746;2023-05-10T09:32:53;14.50;99.90
13328;DHT22;6733;51.044;3.746;2023-05-10T09:35:25;14.60;99.90
13328;DHT22;6733;51.044;3.746;2023-05-10T09:37:54;14.80;99.90
13328;DHT22;6733;51.044;3.746;2023-05-10T09:40:25;14.80;99.90
13328;DHT22;6733;51.044;3.746;2023-05-10T09:45:23;15.10;99.90
13328;DHT22;6733;51.044;3.746;2023-05-10T09:47:49;15.30;99.90
13328;DHT22;6733;51.044;3.746;2023-05-10T09:50:15;15.40;99.90
13328;DHT22;6733;51.044;3.746;2023-05-10T09:52:57;15.50;99.90
13328;DHT22;6733;51.044;3.746;2023-05-10T09:55:46;15.60;99.90
13328;DHT22;6733;51.044;3.746;2023-05-10T09:58:15;15.50;99.90
13328;DHT22;6733;51.044;3.746;2023-05-10T10:00:43;15.60;99.90
13328;DHT22;6733;51.044;3.746;2023-05-10T10:03:18;16.00;99.90
13328;DHT22;6733;51.044;3.746;2023-05-10T10:05:45;16.00;99.90
13328;DHT22;6733;51.044;3.746;2023-05-10T10:08:13;16.00;99.90
13328;DHT22;6733;51.044;3.746;2023-05-10T10:10:40;16.10;99.90
13328;DHT22;6733;51.044;3.746;2023-05-10T10:13:07;16.50;99.90
13328;DHT22;6733;51.044;3.746;2023-05-10T10:15:34;16.60;99.90
13328;DHT22;6733;51.044;3.746;2023-05-10T10:18:00;16.70;99.90
13328;DHT22;6733;51.044;3.746;2023-05-10T10:20:27;16.90;99.90
13328;DHT22;6733;51.044;3.746;2023-05-10T10:22:54;16.90;99.90
13328;DHT22;6733;51.044;3.746;2023-05-10T10:25:20;17.10;99.90
13328;DHT22;6733;51.044;3.746;2023-05-10T10:36:02;18.60;99.90
13328;DHT22;6733;51.044;3.746;2023-05-10T10:38:55;18.70;99.90
13328;DHT22;6733;51.044;3.746;2023-05-10T10:44:23;18.60;99.90
13328;DHT22;6733;51.044;3.746;2023-05-10T10:47:00;18.30;99.90
13328;DHT22;6733;51.044;3.746;2023-05-10T10:49:27;17.80;99.90
13328;DHT22;6733;51.044;3.746;2023-05-10T10:54:50;17.10;99.90
13328;DHT22;6733;51.044;3.746;2023-05-10T10:57:18;16.90;99.90
13328;DHT22;6733;51.044;3.746;2023-05-10T10:59:45;16.90;99.90
13328;DHT22;6733;51.044;3.746;2023-05-10T11:02:34;16.70;99.90
13328;DHT22;6733;51.044;3.746;2023-05-10T11:07:54;16.70;99.90
13328;DHT22;6733;51.044;3.746;2023-05-10T11:10:22;17.00;99.90
13328;DHT22;6733;51.044;3.746;2023-05-10T11:13:08;16.80;99.90
13328;DHT22;6733;51.044;3.746;2023-05-10T11:15:36;16.60;99.90
13328;DHT22;6733;51.044;3.746;2023-05-10T11:18:26;16.60;99.90
13328;DHT22;6733;51.044;3.746;2023-05-10T11:21:00;16.70;99.90
13328;DHT22;6733;51.044;3.746;2023-05-10T11:23:47;16.50;99.90
13328;DHT22;6733;51.044;3.746;2023-05-10T11:26:13;16.30;99.90
13328;DHT22;6733;51.044;3.746;2023-05-10T11:28:44;15.80;99.90
13328;DHT22;6733;51.044;3.746;2023-05-10T11:31:13;15.60;99.90
13328;DHT22;6733;51.044;3.746;2023-05-10T11:33:50;15.60;99.90
13328;DHT22;6733;51.044;3.746;2023-05-10T11:36:23;15.60;99.90
13328;DHT22;6733;51.044;3.746;2023-05-10T11:38:51;15.60;99.90
13328;DHT22;6733;51.044;3.746;2023-05-10T11:41:19;15.50;99.90
13328;DHT22;6733;51.044;3.746;2023-05-10T11:43:50;15.50;99.90
13328;DHT22;6733;51.044;3.746;2023-05-10T11:46:19;15.40;99.90
13328;DHT22;6733;51.044;3.746;2023-05-10T11:48:49;15.60;99.90
13328;DHT22;6733;51.044;3.746;2023-05-10T11:51:20;16.00;99.90
13328;DHT22;6733;51.044;3.746;2023-05-10T11:53:47;16.10;99.90
13328;DHT22;6733;51.044;3.746;2023-05-10T11:56:13;16.30;99.90
13328;DHT22;6733;51.044;3.746;2023-05-10T11:58:39;16.50;99.90
13328;DHT22;6733;51.044;3.746;2023-05-10T12:01:08;16.90;99.90
13328;DHT22;6733;51.044;3.746;2023-05-10T12:03:35;17.00;99.90
13328;DHT22;6733;51.044;3.746;2023-05-10T12:06:02;17.40;99.90
13328;DHT22;6733;51.044;3.746;2023-05-10T12:08:30;17.20;99.90
13328;DHT22;6733;51.044;3.746;2023-05-10T12:11:07;17.20;99.90
13328;DHT22;6733;51.044;3.746;2023-05-10T12:13:41;17.30;99.90
13328;DHT22;6733;51.044;3.746;2023-05-10T12:16:15;17.00;99.90
13328;DHT22;6733;51.044;3.746;2023-05-10T12:18:41;17.20;99.90
13328;DHT22;6733;51.044;3.746;2023-05-10T12:21:11;17.40;99.90
13328;DHT22;6733;51.044;3.746;2023-05-10T12:23:39;17.00;99.90
13328;DHT22;6733;51.044;3.746;2023-05-10T12:26:05;17.20;99.90
13328;DHT22;6733;51.044;3.746;2023-05-10T12:28:32;16.70;99.90
13328;DHT22;6733;51.044;3.746;2023-05-10T12:30:59;16.80;99.90
13328;DHT22;6733;51.044;3.746;2023-05-10T12:33:25;17.10;99.90
13328;DHT22;6733;51.044;3.746;2023-05-10T12:35:53;17.00;99.90
13328;DHT22;6733;51.044;3.746;2023-05-10T12:38:38;16.90;99.90
13328;DHT22;6733;51.044;3.746;2023-05-10T12:41:09;16.90;99.90
13328;DHT22;6733;51.044;3.746;2023-05-10T12:43:36;16.80;99.90
13328;DHT22;6733;51.044;3.746;2023-05-10T12:46:10;16.70;99.90
13328;DHT22;6733;51.044;3.746;2023-05-10T12:48:37;16.70;99.90
13328;DHT22;6733;51.044;3.746;2023-05-10T12:51:04;16.70;99.90
13328;DHT22;6733;51.044;3.746;2023-05-10T12:53:31;16.50;99.90
13328;DHT22;6733;51.044;3.746;2023-05-10T12:55:57;16.20;99.90
13328;DHT22;6733;51.044;3.746;2023-05-10T12:58:23;16.10;99.90
13328;DHT22;6733;51.044;3.746;2023-05-10T13:00:50;16.30;99.90
13328;DHT22;6733;51.044;3.746;2023-05-10T13:03:17;16.20;99.90
13328;DHT22;6733;51.044;3.746;2023-05-10T13:05:43;16.00;99.90
13328;DHT22;6733;51.044;3.746;2023-05-10T13:08:09;15.90;99.90
13328;DHT22;6733;51.044;3.746;2023-05-10T13:10:36;15.70;99.90
13328;DHT22;6733;51.044;3.746;2023-05-10T13:13:02;15.70;99.90
13328;DHT22;6733;51.044;3.746;2023-05-10T13:15:28;15.70;99.90
13328;DHT22;6733;51.044;3.746;2023-05-10T13:17:54;15.50;99.90
13328;DHT22;6733;51.044;3.746;2023-05-10T13:20:21;15.40;99.90
13328;DHT22;6733;51.044;3.746;2023-05-10T13:22:47;15.20;99.90
13328;DHT22;6733;51.044;3.746;2023-05-10T13:25:13;15.30;99.90
13328;DHT22;6733;51.044;3.746;2023-05-10T13:27:40;15.20;99.90
13328;DHT22;6733;51.044;3.746;2023-05-10T13:30:09;15.20;99.90
13328;DHT22;6733;51.044;3.746;2023-05-10T13:32:37;15.00;99.90
13328;DHT22;6733;51.044;3.746;2023-05-10T13:35:04;15.00;99.90
13328;DHT22;6733;51.044;3.746;2023-05-10T13:37:31;15.00;99.90
13328;DHT22;6733;51.044;3.746;2023-05-10T13:39:57;14.90;99.90
13328;DHT22;6733;51.044;3.746;2023-05-10T13:42:23;14.80;99.90
13328;DHT22;6733;51.044;3.746;2023-05-10T13:44:50;14.80;99.90
13328;DHT22;6733;51.044;3.746;2023-05-10T13:47:16;14.80;99.90
13328;DHT22;6733;51.044;3.746;2023-05-10T13:49:42;14.90;99.90
13328;DHT22;6733;51.044;3.746;2023-05-10T13:52:08;14.90;99.90
13328;DHT22;6733;51.044;3.746;2023-05-10T13:54:36;14.90;99.90
13328;DHT22;6733;51.044;3.746;2023-05-10T13:57:03;15.00;99.90
13328;DHT22;6733;51.044;3.746;2023-05-10T13:59:29;15.10;99.90
13328;DHT22;6733;51.044;3.746;2023-05-10T14:01:58;15.00;99.90
13328;DHT22;6733;51.044;3.746;2023-05-10T14:04:24;15.10;99.90
13328;DHT22;6733;51.044;3.746;2023-05-10T14:06:51;15.00;99.90
13328;DHT22;6733;51.044;3.746;2023-05-10T14:09:18;15.10;99.90
13328;DHT22;6733;51.044;3.746;2023-05-10T14:11:45;15.10;99.90
13328;DHT22;6733;51.044;3.746;2023-05-10T14:14:12;15.10;99.90
13328;DHT22;6733;51.044;3.746;2023-05-10T14:16:43;15.00;99.90
13328;DHT22;6733;51.044;3.746;2023-05-10T14:19:10;15.00;99.90
13328;DHT22;6733;51.044;3.746;2023-05-10T14:21:37;15.00;99.90
13328;DHT22;6733;51.044;3.746;2023-05-10T14:24:04;15.10;99.90
13328;DHT22;6733;51.044;3.746;2023-05-10T14:26:30;15.20;99.90
13328;DHT22;6733;51.044;3.746;2023-05-10T14:28:57;15.30;99.90
13328;DHT22;6733;51.044;3.746;2023-05-10T14:31:23;15.20;99.90
13328;DHT22;6733;51.044;3.746;2023-05-10T14:33:51;15.30;99.90
13328;DHT22;6733;51.044;3.746;2023-05-10T14:36:17;15.40;99.90
13328;DHT22;6733;51.044;3.746;2023-05-10T14:38:44;15.40;99.90
13328;DHT22;6733;51.044;3.746;2023-05-10T14:41:10;15.50;99.90
13328;DHT22;6733;51.044;3.746;2023-05-10T14:43:40;15.60;99.90
13328;DHT22;6733;51.044;3.746;2023-05-10T14:46:07;15.70;99.90
13328;DHT22;6733;51.044;3.746;2023-05-10T14:48:33;15.80;99.90
13328;DHT22;6733;51.044;3.746;2023-05-10T14:50:59;15.40;99.90
13328;DHT22;6733;51.044;3.746;2023-05-10T14:53:25;15.60;99.90
13328;DHT22;6733;51.044;3.746;2023-05-10T14:55:51;15.80;99.90
13328;DHT22;6733;51.044;3.746;2023-05-10T14:58:18;15.90;99.90
13328;DHT22;6733;51.044;3.746;2023-05-10T15:00:44;15.90;99.90
13328;DHT22;6733;51.044;3.746;2023-05-10T15:03:11;16.00;99.90
13328;DHT22;6733;51.044;3.746;2023-05-10T15:05:37;16.00;99.90
13328;DHT22;6733;51.044;3.746;2023-05-10T15:08:04;16.00;99.90
13328;DHT22;6733;51.044;3.746;2023-05-10T15:10:31;16.00;99.90
13328;DHT22;6733;51.044;3.746;2023-05-10T15:12:59;16.00;99.90
13328;DHT22;6733;51.044;3.746;2023-05-10T15:15:25;16.00;99.90
13328;DHT22;6733;51.044;3.746;2023-05-10T15:17:51;16.00;99.90
13328;DHT22;6733;51.044;3.746;2023-05-10T15:20:17;16.00;99.90
13328;DHT22;6733;51.044;3.746;2023-05-10T15:22:43;16.10;99.90
13328;DHT22;6733;51.044;3.746;2023-05-10T15:25:10;16.10;99.90
13328;DHT22;6733;51.044;3.746;2023-05-10T15:27:36;16.10;99.90
13328;DHT22;6733;51.044;3.746;2023-05-10T15:30:02;16.00;99.90
13328;DHT22;6733;51.044;3.746;2023-05-10T15:32:28;16.10;99.90
13328;DHT22;6733;51.044;3.746;2023-05-10T15:34:55;16.00;99.90
13328;DHT22;6733;51.044;3.746;2023-05-10T15:37:21;16.00;99.90
13328;DHT22;6733;51.044;3.746;2023-05-10T15:39:49;16.00;99.90
13328;DHT22;6733;51.044;3.746;2023-05-10T15:42:15;16.00;99.90
13328;DHT22;6733;51.044;3.746;2023-05-10T15:44:42;16.00;99.90
13328;DHT22;6733;51.044;3.746;2023-05-10T15:47:10;16.00;99.90
13328;DHT22;6733;51.044;3.746;2023-05-10T15:49:36;16.10;99.90
13328;DHT22;6733;51.044;3.746;2023-05-10T15:52:02;16.20;99.90
13328;DHT22;6733;51.044;3.746;2023-05-10T15:54:28;16.20;99.90
13328;DHT22;6733;51.044;3.746;2023-05-10T15:56:54;16.30;99.90
13328;DHT22;6733;51.044;3.746;2023-05-10T15:59:20;16.30;99.90
13328;DHT22;6733;51.044;3.746;2023-05-10T16:01:47;16.30;99.90
13328;DHT22;6733;51.044;3.746;2023-05-10T16:04:13;16.50;99.90
13328;DHT22;6733;51.044;3.746;2023-05-10T16:06:39;16.50;99.90
13328;DHT22;6733;51.044;3.746;2023-05-10T16:09:05;16.40;99.90
13328;DHT22;6733;51.044;3.746;2023-05-10T16:11:32;16.70;99.90
13328;DHT22;6733;51.044;3.746;2023-05-10T16:13:58;16.80;99.90
13328;DHT22;6733;51.044;3.746;2023-05-10T16:16:24;17.00;99.90
13328;DHT22;6733;51.044;3.746;2023-05-10T16:18:51;17.00;99.90
13328;DHT22;6733;51.044;3.746;2023-05-10T16:21:17;17.30;99.90
13328;DHT22;6733;51.044;3.746;2023-05-10T16:23:44;18.20;99.90
13328;DHT22;6733;51.044;3.746;2023-05-10T16:26:11;19.50;99.90
13328;DHT22;6733;51.044;3.746;2023-05-10T16:28:37;19.70;99.90
13328;DHT22;6733;51.044;3.746;2023-05-10T16:31:05;19.90;99.90
13328;DHT22;6733;51.044;3.746;2023-05-10T16:33:31;19.70;99.90
13328;DHT22;6733;51.044;3.746;2023-05-10T16:35:57;19.40;99.90